sensor_id;sensor_type;location;lat;lon;timestamp;pressure;altitude;pressure_sealevel;temperature;humidity
86038;BME280;76634;47.732;7.348;2024-02-21T19:21:21;97788.72;;;9.45;61.58
86038;BME280;76634;47.732;7.348;2024-02-21T19:23:47;97784.56;;;9.34;61.70
86038;BME280;76634;47.732;7.348;2024-02-21T19:26:13;97774.94;;;9.42;61.64
86038;BME280;76634;47.732;7.348;2024-02-21T19:28:41;97772.03;;;9.59;60.15
86038;BME280;76634;47.732;7.348;2024-02-21T19:31:07;97766.66;;;9.70;59.54
86038;BME280;76634;47.732;7.348;2024-02-21T19:33:33;97760.38;;;9.81;58.44
86038;BME280;76634;47.732;7.348;2024-02-21T19:35:59;97753.38;;;9.85;57.86
86038;BME280;76634;47.732;7.348;2024-02-21T19:38:25;97752.69;;;9.75;58.64
86038;BME280;76634;47.732;7.348;2024-02-21T19:40:53;97750.16;;;9.71;58.08
86038;BME280;76634;47.732;7.348;2024-02-21T19:43:19;97759.78;;;9.65;58.65
86038;BME280;76634;47.732;7.348;2024-02-21T19:45:45;97759.91;;;9.59;57.99
86038;BME280;76634;47.732;7.348;2024-02-21T19:48:14;97731.78;;;9.81;56.89
86038;BME280;76634;47.732;7.348;2024-02-21T19:50:43;97730.75;;;9.90;56.24
86038;BME280;76634;47.732;7.348;2024-02-21T19:53:09;97727.25;;;9.91;56.27
86038;BME280;76634;47.732;7.348;2024-02-21T19:55:35;97725.47;;;9.95;56.11
86038;BME280;76634;47.732;7.348;2024-02-21T19:58:01;97580.88;;;9.05;56.50
86038;BME280;76634;47.732;7.348;2024-02-21T20:00:29;97700.31;;;9.97;55.98
86038;BME280;76634;47.732;7.348;2024-02-21T20:02:55;97698.44;;;10.03;55.64
86038;BME280;76634;47.732;7.348;2024-02-21T20:05:22;97700.88;;;10.11;55.57
86038;BME280;76634;47.732;7.348;2024-02-21T20:07:49;97697.44;;;10.11;55.33
86038;BME280;76634;47.732;7.348;2024-02-21T20:10:15;97694.94;;;10.06;56.48
86038;BME280;76634;47.732;7.348;2024-02-21T20:12:44;97683.63;;;10.07;55.70
86038;BME280;76634;47.732;7.348;2024-02-21T20:15:10;97679.25;;;10.09;55.74
86038;BME280;76634;47.732;7.348;2024-02-21T20:17:36;97676.81;;;10.01;55.26
86038;BME280;76634;47.732;7.348;2024-02-21T20:20:03;97669.81;;;10.05;55.35
86038;BME280;76634;47.732;7.348;2024-02-21T20:22:31;97664.56;;;10.06;55.63
86038;BME280;76634;47.732;7.348;2024-02-21T20:25:00;97661.53;;;9.86;57.26
86038;BME280;76634;47.732;7.348;2024-02-21T20:27:26;97669.16;;;9.94;57.06
86038;BME280;76634;47.732;7.348;2024-02-21T20:29:52;97672.03;;;9.80;57.48
86038;BME280;76634;47.732;7.348;2024-02-21T20:32:18;97664.03;;;9.92;55.62
86038;BME280;76634;47.732;7.348;2024-02-21T20:34:44;97669.06;;;9.98;56.12
86038;BME280;76634;47.732;7.348;2024-02-21T20:37:10;97672.84;;;9.83;56.29
86038;BME280;76634;47.732;7.348;2024-02-21T20:39:37;97677.03;;;9.91;55.93
86038;BME280;76634;47.732;7.348;2024-02-21T20:42:03;97677.78;;;9.96;55.56
86038;BME280;76634;47.732;7.348;2024-02-21T20:44:32;97676.94;;;9.95;55.50
86038;BME280;76634;47.732;7.348;2024-02-21T20:46:59;97678.63;;;9.98;55.12
86038;BME280;76634;47.732;7.348;2024-02-21T20:49:25;97669.16;;;9.94;55.24
86038;BME280;76634;47.732;7.348;2024-02-21T20:51:51;97669.16;;;9.95;55.24
86038;BME280;76634;47.732;7.348;2024-02-21T20:54:17;97663.22;;;9.88;55.67
86038;BME280;76634;47.732;7.348;2024-02-21T20:56:43;97664.13;;;9.86;55.52
86038;BME280;76634;47.732;7.348;2024-02-21T20:59:09;97658.88;;;9.89;55.11
86038;BME280;76634;47.732;7.348;2024-02-21T21:01:35;97659.69;;;9.91;55.33
86038;BME280;76634;47.732;7.348;2024-02-21T21:04:01;97664.97;;;9.86;56.06
86038;BME280;76634;47.732;7.348;2024-02-21T21:06:28;97652.03;;;9.85;55.18
86038;BME280;76634;47.732;7.348;2024-02-21T21:08:54;97655.75;;;9.73;56.10
86038;BME280;76634;47.732;7.348;2024-02-21T21:11:20;97648.00;;;9.70;55.60
86038;BME280;76634;47.732;7.348;2024-02-21T21:13:46;97640.00;;;9.79;54.75
86038;BME280;76634;47.732;7.348;2024-02-21T21:16:12;97637.38;;;9.81;54.77
86038;BME280;76634;47.732;7.348;2024-02-21T21:18:41;97639.09;;;9.82;54.89
86038;BME280;76634;47.732;7.348;2024-02-21T21:21:07;97638.34;;;9.75;54.98
86038;BME280;76634;47.732;7.348;2024-02-21T21:23:33;97628.09;;;9.69;55.44
86038;BME280;76634;47.732;7.348;2024-02-21T21:25:59;97628.03;;;9.72;55.54
86038;BME280;76634;47.732;7.348;2024-02-21T21:28:25;97627.16;;;9.73;55.73
86038;BME280;76634;47.732;7.348;2024-02-21T21:30:51;97623.78;;;9.68;55.80
86038;BME280;76634;47.732;7.348;2024-02-21T21:33:20;97629.06;;;9.63;55.75
86038;BME280;76634;47.732;7.348;2024-02-21T21:35:47;97623.13;;;9.58;56.13
86038;BME280;76634;47.732;7.348;2024-02-21T21:38:18;97619.75;;;9.55;56.65
86038;BME280;76634;47.732;7.348;2024-02-21T21:40:44;97613.91;;;9.42;56.83
86038;BME280;76634;47.732;7.348;2024-02-21T21:43:11;97617.31;;;9.45;56.87
86038;BME280;76634;47.732;7.348;2024-02-21T21:45:37;97618.13;;;9.48;56.36
86038;BME280;76634;47.732;7.348;2024-02-21T21:48:04;97609.47;;;9.47;56.68
86038;BME280;76634;47.732;7.348;2024-02-21T21:50:31;97611.06;;;9.56;56.23
86038;BME280;76634;47.732;7.348;2024-02-21T21:52:57;97612.72;;;9.58;56.14
86038;BME280;76634;47.732;7.348;2024-02-21T21:55:23;97611.91;;;9.56;55.66
86038;BME280;76634;47.732;7.348;2024-02-21T21:57:49;97618.84;;;9.56;56.19
86038;BME280;76634;47.732;7.348;2024-02-21T22:00:16;97610.34;;;9.48;56.43
86038;BME280;76634;47.732;7.348;2024-02-21T22:02:42;97601.69;;;9.47;56.90
86038;BME280;76634;47.732;7.348;2024-02-21T22:05:13;97612.00;;;9.52;56.04
86038;BME280;76634;47.732;7.348;2024-02-21T22:07:39;97599.72;;;9.60;55.47
86038;BME280;76634;47.732;7.348;2024-02-21T22:10:06;97598.88;;;9.58;55.29
86038;BME280;76634;47.732;7.348;2024-02-21T22:12:33;97596.09;;;9.67;55.09
86038;BME280;76634;47.732;7.348;2024-02-21T22:14:59;97603.91;;;9.65;55.52
86038;BME280;76634;47.732;7.348;2024-02-21T22:17:25;97608.25;;;9.65;55.20
86038;BME280;76634;47.732;7.348;2024-02-21T22:19:51;97607.44;;;9.63;54.77
86038;BME280;76634;47.732;7.348;2024-02-21T22:22:17;97602.31;;;9.60;55.38
86038;BME280;76634;47.732;7.348;2024-02-21T22:24:43;97602.50;;;9.51;55.79
86038;BME280;76634;47.732;7.348;2024-02-21T22:27:12;97605.69;;;9.63;54.91
86038;BME280;76634;47.732;7.348;2024-02-21T22:29:38;97608.25;;;9.66;54.99
86038;BME280;76634;47.732;7.348;2024-02-21T22:32:04;97599.47;;;9.71;54.72
86038;BME280;76634;47.732;7.348;2024-02-21T22:34:35;97595.34;;;9.62;54.91
86038;BME280;76634;47.732;7.348;2024-02-21T22:37:02;97594.34;;;9.69;54.95
86038;BME280;76634;47.732;7.348;2024-02-21T22:39:28;97603.06;;;9.65;55.23
86038;BME280;76634;47.732;7.348;2024-02-21T22:41:54;97594.34;;;9.69;55.20
86038;BME280;76634;47.732;7.348;2024-02-21T22:44:20;97596.13;;;9.65;55.03
86038;BME280;76634;47.732;7.348;2024-02-21T22:46:46;97589.34;;;9.58;55.33
86038;BME280;76634;47.732;7.348;2024-02-21T22:49:13;97598.97;;;9.53;55.36
86038;BME280;76634;47.732;7.348;2024-02-21T22:51:39;97586.75;;;9.58;54.45
86038;BME280;76634;47.732;7.348;2024-02-21T22:54:05;97582.31;;;9.63;54.47
86038;BME280;76634;47.732;7.348;2024-02-21T22:56:33;97577.09;;;9.65;54.48
86038;BME280;76634;47.732;7.348;2024-02-21T22:58:59;97588.13;;;9.75;54.00
86038;BME280;76634;47.732;7.348;2024-02-21T23:01:25;97587.19;;;9.79;53.45
86038;BME280;76634;47.732;7.348;2024-02-21T23:03:52;97586.59;;;9.66;54.13
86038;BME280;76634;47.732;7.348;2024-02-21T23:06:18;97580.63;;;9.62;54.37
86038;BME280;76634;47.732;7.348;2024-02-21T23:08:46;97573.41;;;9.75;54.07
86038;BME280;76634;47.732;7.348;2024-02-21T23:11:12;97578.84;;;9.64;54.12
86038;BME280;76634;47.732;7.348;2024-02-21T23:13:38;97576.25;;;9.64;54.35
86038;BME280;76634;47.732;7.348;2024-02-21T23:16:05;97572.81;;;9.64;54.64
86038;BME280;76634;47.732;7.348;2024-02-21T23:18:31;97576.34;;;9.60;54.65
86038;BME280;76634;47.732;7.348;2024-02-21T23:20:58;97576.53;;;9.51;54.90
86038;BME280;76634;47.732;7.348;2024-02-21T23:23:24;97576.25;;;9.63;54.78
86038;BME280;76634;47.732;7.348;2024-02-21T23:25:50;97583.13;;;9.67;54.92
86038;BME280;76634;47.732;7.348;2024-02-21T23:28:16;97578.88;;;9.61;55.38
86038;BME280;76634;47.732;7.348;2024-02-21T23:30:42;97576.25;;;9.63;55.44
86038;BME280;76634;47.732;7.348;2024-02-21T23:33:09;97571.97;;;9.62;55.68
86038;BME280;76634;47.732;7.348;2024-02-21T23:35:35;97568.56;;;9.60;56.02
86038;BME280;76634;47.732;7.348;2024-02-21T23:38:03;97557.22;;;9.64;56.50
86038;BME280;76634;47.732;7.348;2024-02-21T23:40:32;97561.38;;;9.71;56.23
86038;BME280;76634;47.732;7.348;2024-02-21T23:42:58;97554.53;;;9.69;56.24
86038;BME280;76634;47.732;7.348;2024-02-21T23:45:26;97554.53;;;9.69;56.64
86038;BME280;76634;47.732;7.348;2024-02-21T23:47:53;97535.34;;;9.73;56.71
86038;BME280;76634;47.732;7.348;2024-02-21T23:50:19;97551.03;;;9.68;57.71
86038;BME280;76634;47.732;7.348;2024-02-21T23:52:46;97549.44;;;9.62;57.86
86038;BME280;76634;47.732;7.348;2024-02-21T23:55:12;97541.03;;;9.50;57.95
86038;BME280;76634;47.732;7.348;2024-02-21T23:57:38;97538.31;;;9.56;58.17
